sensor_id;sensor_type;location;lat;lon;timestamp;P1;durP1;ratioP1;P2;durP2;ratioP2
54705;SDS011;40603;48.774;8.916;2023-01-26T00:01:25;27.98;;;12.48;;
54705;SDS011;40603;48.774;8.916;2023-01-26T00:03:54;30.83;;;12.73;;
54705;SDS011;40603;48.774;8.916;2023-01-26T00:06:20;25.90;;;12.20;;
54705;SDS011;40603;48.774;8.916;2023-01-26T00:08:47;29.50;;;12.23;;
54705;SDS011;40603;48.774;8.916;2023-01-26T00:11:14;28.83;;;11.43;;
54705;SDS011;40603;48.774;8.916;2023-01-26T00:13:42;29.08;;;12.18;;
54705;SDS011;40603;48.774;8.916;2023-01-26T00:16:08;32.38;;;12.50;;
54705;SDS011;40603;48.774;8.916;2023-01-26T00:18:35;25.38;;;11.88;;
54705;SDS011;40603;48.774;8.916;2023-01-26T00:21:01;29.50;;;11.63;;
54705;SDS011;40603;48.774;8.916;2023-01-26T00:23:27;25.42;;;11.32;;
54705;SDS011;40603;48.774;8.916;2023-01-26T00:25:53;25.25;;;10.68;;
54705;SDS011;40603;48.774;8.916;2023-01-26T00:28:19;28.83;;;12.07;;
54705;SDS011;40603;48.774;8.916;2023-01-26T00:30:44;34.15;;;13.10;;
54705;SDS011;40603;48.774;8.916;2023-01-26T00:33:09;29.15;;;12.18;;
54705;SDS011;40603;48.774;8.916;2023-01-26T00:35:35;31.40;;;12.48;;
54705;SDS011;40603;48.774;8.916;2023-01-26T00:38:00;31.35;;;13.40;;
54705;SDS011;40603;48.774;8.916;2023-01-26T00:40:25;26.45;;;11.88;;
54705;SDS011;40603;48.774;8.916;2023-01-26T00:42:50;27.42;;;12.40;;
54705;SDS011;40603;48.774;8.916;2023-01-26T00:45:18;31.48;;;12.50;;
54705;SDS011;40603;48.774;8.916;2023-01-26T00:47:43;29.02;;;12.85;;
54705;SDS011;40603;48.774;8.916;2023-01-26T00:50:09;29.20;;;12.15;;
54705;SDS011;40603;48.774;8.916;2023-01-26T00:52:34;29.92;;;12.57;;
54705;SDS011;40603;48.774;8.916;2023-01-26T00:55:00;23.38;;;10.63;;
54705;SDS011;40603;48.774;8.916;2023-01-26T00:57:25;25.95;;;11.90;;
54705;SDS011;40603;48.774;8.916;2023-01-26T00:59:50;31.90;;;12.02;;
54705;SDS011;40603;48.774;8.916;2023-01-26T01:02:15;25.92;;;11.02;;
54705;SDS011;40603;48.774;8.916;2023-01-26T01:04:41;25.05;;;11.35;;
54705;SDS011;40603;48.774;8.916;2023-01-26T01:07:06;25.52;;;10.50;;
54705;SDS011;40603;48.774;8.916;2023-01-26T01:09:31;28.42;;;12.27;;
54705;SDS011;40603;48.774;8.916;2023-01-26T01:11:57;26.08;;;11.57;;
54705;SDS011;40603;48.774;8.916;2023-01-26T01:14:22;30.60;;;12.98;;
54705;SDS011;40603;48.774;8.916;2023-01-26T01:16:47;26.40;;;10.73;;
54705;SDS011;40603;48.774;8.916;2023-01-26T01:19:13;28.95;;;11.75;;
54705;SDS011;40603;48.774;8.916;2023-01-26T01:21:39;29.17;;;12.45;;
54705;SDS011;40603;48.774;8.916;2023-01-26T01:24:05;30.98;;;12.63;;
54705;SDS011;40603;48.774;8.916;2023-01-26T01:26:31;24.50;;;11.35;;
54705;SDS011;40603;48.774;8.916;2023-01-26T01:28:56;29.70;;;11.82;;
54705;SDS011;40603;48.774;8.916;2023-01-26T01:31:21;23.48;;;11.65;;
54705;SDS011;40603;48.774;8.916;2023-01-26T01:33:47;26.52;;;11.98;;
54705;SDS011;40603;48.774;8.916;2023-01-26T01:36:13;27.92;;;12.38;;
54705;SDS011;40603;48.774;8.916;2023-01-26T01:38:40;36.35;;;13.75;;
54705;SDS011;40603;48.774;8.916;2023-01-26T01:41:06;34.10;;;11.93;;
54705;SDS011;40603;48.774;8.916;2023-01-26T01:43:32;32.45;;;12.80;;
54705;SDS011;40603;48.774;8.916;2023-01-26T01:45:58;30.45;;;12.00;;
54705;SDS011;40603;48.774;8.916;2023-01-26T01:48:35;27.67;;;12.05;;
54705;SDS011;40603;48.774;8.916;2023-01-26T01:51:03;28.17;;;11.20;;
54705;SDS011;40603;48.774;8.916;2023-01-26T01:53:31;23.75;;;10.88;;
54705;SDS011;40603;48.774;8.916;2023-01-26T01:56:00;29.70;;;12.23;;
54705;SDS011;40603;48.774;8.916;2023-01-26T01:58:27;29.50;;;12.23;;
54705;SDS011;40603;48.774;8.916;2023-01-26T02:00:54;33.13;;;12.85;;
54705;SDS011;40603;48.774;8.916;2023-01-26T02:03:19;34.45;;;12.90;;
54705;SDS011;40603;48.774;8.916;2023-01-26T02:08:17;27.80;;;11.77;;
54705;SDS011;40603;48.774;8.916;2023-01-26T02:10:47;29.80;;;12.75;;
54705;SDS011;40603;48.774;8.916;2023-01-26T02:13:14;30.48;;;12.07;;
54705;SDS011;40603;48.774;8.916;2023-01-26T02:15:41;31.15;;;12.90;;
54705;SDS011;40603;48.774;8.916;2023-01-26T02:18:07;30.90;;;12.23;;
54705;SDS011;40603;48.774;8.916;2023-01-26T02:26:07;28.65;;;11.88;;
54705;SDS011;40603;48.774;8.916;2023-01-26T02:28:35;29.73;;;12.23;;
54705;SDS011;40603;48.774;8.916;2023-01-26T02:31:01;31.75;;;13.13;;
54705;SDS011;40603;48.774;8.916;2023-01-26T02:33:27;29.48;;;12.95;;
54705;SDS011;40603;48.774;8.916;2023-01-26T02:35:55;29.27;;;13.05;;
54705;SDS011;40603;48.774;8.916;2023-01-26T02:38:20;30.52;;;13.27;;
54705;SDS011;40603;48.774;8.916;2023-01-26T02:40:54;29.92;;;12.27;;
54705;SDS011;40603;48.774;8.916;2023-01-26T02:43:21;27.58;;;10.90;;
54705;SDS011;40603;48.774;8.916;2023-01-26T02:45:48;23.30;;;11.50;;
54705;SDS011;40603;48.774;8.916;2023-01-26T02:48:13;26.05;;;11.90;;
54705;SDS011;40603;48.774;8.916;2023-01-26T02:50:59;28.17;;;11.88;;
54705;SDS011;40603;48.774;8.916;2023-01-26T02:53:24;25.05;;;11.88;;
54705;SDS011;40603;48.774;8.916;2023-01-26T02:55:49;23.42;;;10.73;;
54705;SDS011;40603;48.774;8.916;2023-01-26T02:58:16;28.75;;;11.38;;
54705;SDS011;40603;48.774;8.916;2023-01-26T03:00:41;24.98;;;10.63;;
54705;SDS011;40603;48.774;8.916;2023-01-26T03:03:09;21.42;;;10.07;;
54705;SDS011;40603;48.774;8.916;2023-01-26T03:05:38;28.08;;;11.02;;
54705;SDS011;40603;48.774;8.916;2023-01-26T03:08:03;23.70;;;11.55;;
54705;SDS011;40603;48.774;8.916;2023-01-26T03:10:30;22.08;;;9.80;;
54705;SDS011;40603;48.774;8.916;2023-01-26T03:12:55;26.77;;;11.10;;
54705;SDS011;40603;48.774;8.916;2023-01-26T03:15:21;21.27;;;10.13;;
54705;SDS011;40603;48.774;8.916;2023-01-26T03:18:06;25.30;;;11.10;;
54705;SDS011;40603;48.774;8.916;2023-01-26T03:20:52;26.60;;;11.77;;
54705;SDS011;40603;48.774;8.916;2023-01-26T03:23:36;24.35;;;11.43;;
54705;SDS011;40603;48.774;8.916;2023-01-26T03:26:20;27.75;;;11.07;;
54705;SDS011;40603;48.774;8.916;2023-01-26T03:29:04;26.10;;;10.73;;
54705;SDS011;40603;48.774;8.916;2023-01-26T03:31:29;26.77;;;10.95;;
54705;SDS011;40603;48.774;8.916;2023-01-26T03:33:54;24.05;;;10.50;;
54705;SDS011;40603;48.774;8.916;2023-01-26T03:36:20;26.92;;;11.30;;
54705;SDS011;40603;48.774;8.916;2023-01-26T03:38:45;24.27;;;10.40;;
54705;SDS011;40603;48.774;8.916;2023-01-26T03:41:11;22.67;;;9.48;;
54705;SDS011;40603;48.774;8.916;2023-01-26T03:43:55;26.25;;;10.55;;
54705;SDS011;40603;48.774;8.916;2023-01-26T03:46:39;21.58;;;9.68;;
54705;SDS011;40603;48.774;8.916;2023-01-26T03:49:23;20.38;;;9.35;;
54705;SDS011;40603;48.774;8.916;2023-01-26T03:52:07;26.00;;;10.20;;
54705;SDS011;40603;48.774;8.916;2023-01-26T03:54:51;22.20;;;9.38;;
54705;SDS011;40603;48.774;8.916;2023-01-26T03:57:35;23.40;;;9.82;;
54705;SDS011;40603;48.774;8.916;2023-01-26T04:00:00;19.05;;;8.68;;
54705;SDS011;40603;48.774;8.916;2023-01-26T04:02:26;23.10;;;9.30;;
54705;SDS011;40603;48.774;8.916;2023-01-26T04:05:10;21.30;;;9.85;;
54705;SDS011;40603;48.774;8.916;2023-01-26T04:07:54;24.40;;;9.85;;
54705;SDS011;40603;48.774;8.916;2023-01-26T04:10:38;22.38;;;9.52;;
54705;SDS011;40603;48.774;8.916;2023-01-26T04:13:03;22.30;;;10.70;;
54705;SDS011;40603;48.774;8.916;2023-01-26T04:15:47;24.63;;;11.02;;
54705;SDS011;40603;48.774;8.916;2023-01-26T04:18:31;21.27;;;9.75;;
54705;SDS011;40603;48.774;8.916;2023-01-26T04:21:15;20.90;;;8.68;;
54705;SDS011;40603;48.774;8.916;2023-01-26T04:23:54;21.88;;;9.57;;
54705;SDS011;40603;48.774;8.916;2023-01-26T04:26:21;23.67;;;10.05;;
54705;SDS011;40603;48.774;8.916;2023-01-26T04:28:47;20.98;;;9.52;;
54705;SDS011;40603;48.774;8.916;2023-01-26T04:31:12;25.45;;;9.80;;
54705;SDS011;40603;48.774;8.916;2023-01-26T04:33:40;22.67;;;10.45;;
54705;SDS011;40603;48.774;8.916;2023-01-26T04:36:06;21.42;;;9.73;;
54705;SDS011;40603;48.774;8.916;2023-01-26T04:38:32;24.75;;;10.68;;
54705;SDS011;40603;48.774;8.916;2023-01-26T04:40:57;22.67;;;10.27;;
54705;SDS011;40603;48.774;8.916;2023-01-26T04:43:23;24.65;;;10.15;;
54705;SDS011;40603;48.774;8.916;2023-01-26T04:45:58;22.25;;;11.00;;
54705;SDS011;40603;48.774;8.916;2023-01-26T04:48:27;27.65;;;11.35;;
54705;SDS011;40603;48.774;8.916;2023-01-26T04:50:57;29.20;;;13.45;;
54705;SDS011;40603;48.774;8.916;2023-01-26T04:53:24;26.60;;;12.18;;
54705;SDS011;40603;48.774;8.916;2023-01-26T04:55:49;29.88;;;12.52;;
54705;SDS011;40603;48.774;8.916;2023-01-26T04:58:15;29.25;;;13.27;;
54705;SDS011;40603;48.774;8.916;2023-01-26T05:00:40;29.00;;;11.73;;
54705;SDS011;40603;48.774;8.916;2023-01-26T05:03:05;30.27;;;12.82;;
54705;SDS011;40603;48.774;8.916;2023-01-26T05:05:37;29.25;;;12.50;;
54705;SDS011;40603;48.774;8.916;2023-01-26T05:08:03;33.13;;;13.43;;
54705;SDS011;40603;48.774;8.916;2023-01-26T05:10:30;22.83;;;11.40;;
54705;SDS011;40603;48.774;8.916;2023-01-26T05:12:56;31.10;;;12.98;;
54705;SDS011;40603;48.774;8.916;2023-01-26T05:15:21;32.25;;;13.27;;
54705;SDS011;40603;48.774;8.916;2023-01-26T05:17:46;26.65;;;11.90;;
54705;SDS011;40603;48.774;8.916;2023-01-26T05:20:12;25.40;;;11.52;;
54705;SDS011;40603;48.774;8.916;2023-01-26T05:22:37;30.95;;;13.38;;
54705;SDS011;40603;48.774;8.916;2023-01-26T05:25:03;27.88;;;12.63;;
54705;SDS011;40603;48.774;8.916;2023-01-26T05:27:29;27.35;;;11.82;;
54705;SDS011;40603;48.774;8.916;2023-01-26T05:29:54;25.75;;;12.35;;
54705;SDS011;40603;48.774;8.916;2023-01-26T05:32:24;29.67;;;13.13;;
54705;SDS011;40603;48.774;8.916;2023-01-26T05:34:51;26.55;;;11.73;;
54705;SDS011;40603;48.774;8.916;2023-01-26T05:37:16;24.25;;;12.10;;
54705;SDS011;40603;48.774;8.916;2023-01-26T05:39:41;25.80;;;11.43;;
54705;SDS011;40603;48.774;8.916;2023-01-26T05:42:07;25.52;;;11.32;;
54705;SDS011;40603;48.774;8.916;2023-01-26T05:44:32;28.13;;;11.15;;
54705;SDS011;40603;48.774;8.916;2023-01-26T05:46:57;26.50;;;11.27;;
54705;SDS011;40603;48.774;8.916;2023-01-26T05:49:23;24.50;;;11.20;;
54705;SDS011;40603;48.774;8.916;2023-01-26T05:51:48;22.25;;;10.93;;
54705;SDS011;40603;48.774;8.916;2023-01-26T05:54:13;22.52;;;10.95;;
54705;SDS011;40603;48.774;8.916;2023-01-26T05:56:39;22.60;;;11.27;;
54705;SDS011;40603;48.774;8.916;2023-01-26T05:59:04;27.63;;;12.95;;
54705;SDS011;40603;48.774;8.916;2023-01-26T06:01:29;24.73;;;11.77;;
54705;SDS011;40603;48.774;8.916;2023-01-26T06:03:54;22.45;;;11.10;;
54705;SDS011;40603;48.774;8.916;2023-01-26T06:06:20;23.90;;;11.80;;
54705;SDS011;40603;48.774;8.916;2023-01-26T06:08:45;27.13;;;12.10;;
54705;SDS011;40603;48.774;8.916;2023-01-26T06:11:10;27.88;;;13.05;;
54705;SDS011;40603;48.774;8.916;2023-01-26T06:13:35;24.85;;;12.52;;
54705;SDS011;40603;48.774;8.916;2023-01-26T06:16:01;27.13;;;11.48;;
54705;SDS011;40603;48.774;8.916;2023-01-26T06:18:26;26.92;;;11.30;;
54705;SDS011;40603;48.774;8.916;2023-01-26T06:20:51;30.30;;;12.45;;
54705;SDS011;40603;48.774;8.916;2023-01-26T06:23:17;28.42;;;11.43;;
54705;SDS011;40603;48.774;8.916;2023-01-26T06:25:42;23.88;;;9.98;;
54705;SDS011;40603;48.774;8.916;2023-01-26T06:28:07;25.00;;;12.63;;
54705;SDS011;40603;48.774;8.916;2023-01-26T06:30:33;27.13;;;11.68;;
54705;SDS011;40603;48.774;8.916;2023-01-26T06:32:58;23.08;;;10.73;;
54705;SDS011;40603;48.774;8.916;2023-01-26T06:35:24;25.85;;;11.57;;
54705;SDS011;40603;48.774;8.916;2023-01-26T06:37:50;25.10;;;10.80;;
54705;SDS011;40603;48.774;8.916;2023-01-26T06:40:16;25.10;;;9.95;;
54705;SDS011;40603;48.774;8.916;2023-01-26T06:42:46;24.20;;;10.85;;
54705;SDS011;40603;48.774;8.916;2023-01-26T06:45:12;17.52;;;7.80;;
54705;SDS011;40603;48.774;8.916;2023-01-26T06:47:42;26.02;;;11.10;;
54705;SDS011;40603;48.774;8.916;2023-01-26T06:52:34;25.77;;;11.35;;
54705;SDS011;40603;48.774;8.916;2023-01-26T06:55:00;23.80;;;10.13;;
54705;SDS011;40603;48.774;8.916;2023-01-26T06:57:25;23.75;;;10.20;;
54705;SDS011;40603;48.774;8.916;2023-01-26T06:59:51;24.75;;;10.88;;
54705;SDS011;40603;48.774;8.916;2023-01-26T07:02:17;23.90;;;10.38;;
54705;SDS011;40603;48.774;8.916;2023-01-26T07:04:44;26.67;;;11.13;;
54705;SDS011;40603;48.774;8.916;2023-01-26T07:07:09;25.48;;;11.40;;
54705;SDS011;40603;48.774;8.916;2023-01-26T07:09:35;21.30;;;10.48;;
54705;SDS011;40603;48.774;8.916;2023-01-26T07:12:00;25.77;;;11.23;;
54705;SDS011;40603;48.774;8.916;2023-01-26T07:14:25;23.10;;;10.65;;
54705;SDS011;40603;48.774;8.916;2023-01-26T07:16:51;34.13;;;11.88;;
54705;SDS011;40603;48.774;8.916;2023-01-26T07:19:16;26.60;;;11.25;;
54705;SDS011;40603;48.774;8.916;2023-01-26T07:21:41;28.08;;;10.70;;
54705;SDS011;40603;48.774;8.916;2023-01-26T07:24:07;24.23;;;10.48;;
54705;SDS011;40603;48.774;8.916;2023-01-26T07:26:33;25.20;;;10.85;;
54705;SDS011;40603;48.774;8.916;2023-01-26T07:28:58;26.02;;;9.93;;
54705;SDS011;40603;48.774;8.916;2023-01-26T07:31:23;25.30;;;10.85;;
54705;SDS011;40603;48.774;8.916;2023-01-26T07:33:48;22.35;;;10.35;;
54705;SDS011;40603;48.774;8.916;2023-01-26T07:36:14;18.08;;;9.27;;
54705;SDS011;40603;48.774;8.916;2023-01-26T07:38:40;24.80;;;10.23;;
54705;SDS011;40603;48.774;8.916;2023-01-26T07:41:07;20.05;;;9.98;;
54705;SDS011;40603;48.774;8.916;2023-01-26T07:43:34;19.95;;;8.90;;
54705;SDS011;40603;48.774;8.916;2023-01-26T07:46:00;19.05;;;8.57;;
54705;SDS011;40603;48.774;8.916;2023-01-26T07:48:25;23.60;;;9.13;;
54705;SDS011;40603;48.774;8.916;2023-01-26T07:50:53;16.98;;;8.63;;
54705;SDS011;40603;48.774;8.916;2023-01-26T07:53:19;21.15;;;8.95;;
54705;SDS011;40603;48.774;8.916;2023-01-26T07:55:45;19.23;;;8.20;;
54705;SDS011;40603;48.774;8.916;2023-01-26T07:58:11;18.88;;;8.73;;
54705;SDS011;40603;48.774;8.916;2023-01-26T08:00:36;18.00;;;7.65;;
54705;SDS011;40603;48.774;8.916;2023-01-26T08:03:02;18.45;;;8.13;;
54705;SDS011;40603;48.774;8.916;2023-01-26T08:05:27;18.55;;;8.70;;
54705;SDS011;40603;48.774;8.916;2023-01-26T08:07:56;18.42;;;8.75;;
54705;SDS011;40603;48.774;8.916;2023-01-26T08:10:22;21.08;;;9.27;;
54705;SDS011;40603;48.774;8.916;2023-01-26T08:12:47;20.85;;;8.98;;
54705;SDS011;40603;48.774;8.916;2023-01-26T08:15:12;18.20;;;8.13;;
54705;SDS011;40603;48.774;8.916;2023-01-26T08:17:38;16.00;;;7.57;;
54705;SDS011;40603;48.774;8.916;2023-01-26T08:20:03;18.67;;;7.95;;
54705;SDS011;40603;48.774;8.916;2023-01-26T08:22:29;17.25;;;7.05;;
54705;SDS011;40603;48.774;8.916;2023-01-26T08:24:54;15.43;;;8.00;;
54705;SDS011;40603;48.774;8.916;2023-01-26T08:27:20;18.95;;;8.07;;
54705;SDS011;40603;48.774;8.916;2023-01-26T08:29:46;17.23;;;7.97;;
54705;SDS011;40603;48.774;8.916;2023-01-26T08:32:11;18.08;;;8.38;;
54705;SDS011;40603;48.774;8.916;2023-01-26T08:34:37;17.25;;;7.90;;
54705;SDS011;40603;48.774;8.916;2023-01-26T08:37:02;18.65;;;8.43;;
54705;SDS011;40603;48.774;8.916;2023-01-26T08:39:27;16.33;;;7.80;;
54705;SDS011;40603;48.774;8.916;2023-01-26T08:41:53;20.10;;;8.50;;
54705;SDS011;40603;48.774;8.916;2023-01-26T08:44:19;17.45;;;7.85;;
54705;SDS011;40603;48.774;8.916;2023-01-26T08:46:44;20.17;;;8.55;;
54705;SDS011;40603;48.774;8.916;2023-01-26T08:49:10;17.83;;;8.05;;
54705;SDS011;40603;48.774;8.916;2023-01-26T08:51:35;20.17;;;8.82;;
54705;SDS011;40603;48.774;8.916;2023-01-26T08:54:01;15.50;;;7.57;;
54705;SDS011;40603;48.774;8.916;2023-01-26T08:56:26;18.42;;;8.40;;
54705;SDS011;40603;48.774;8.916;2023-01-26T08:58:51;23.48;;;9.65;;
54705;SDS011;40603;48.774;8.916;2023-01-26T09:01:17;17.15;;;8.15;;
54705;SDS011;40603;48.774;8.916;2023-01-26T09:03:42;19.52;;;9.40;;
54705;SDS011;40603;48.774;8.916;2023-01-26T09:06:08;22.77;;;9.27;;
54705;SDS011;40603;48.774;8.916;2023-01-26T09:08:35;21.90;;;8.63;;
54705;SDS011;40603;48.774;8.916;2023-01-26T09:11:00;21.10;;;8.45;;
54705;SDS011;40603;48.774;8.916;2023-01-26T09:13:26;17.80;;;8.43;;
54705;SDS011;40603;48.774;8.916;2023-01-26T09:15:51;16.92;;;8.63;;
54705;SDS011;40603;48.774;8.916;2023-01-26T09:18:16;18.17;;;8.45;;
54705;SDS011;40603;48.774;8.916;2023-01-26T09:20:42;18.77;;;8.45;;
54705;SDS011;40603;48.774;8.916;2023-01-26T09:23:07;18.73;;;8.90;;
54705;SDS011;40603;48.774;8.916;2023-01-26T09:25:37;17.77;;;9.05;;
54705;SDS011;40603;48.774;8.916;2023-01-26T09:28:03;18.23;;;9.23;;
54705;SDS011;40603;48.774;8.916;2023-01-26T09:30:29;21.65;;;9.43;;
54705;SDS011;40603;48.774;8.916;2023-01-26T09:32:58;18.70;;;8.82;;
54705;SDS011;40603;48.774;8.916;2023-01-26T09:35:25;17.00;;;8.05;;
54705;SDS011;40603;48.774;8.916;2023-01-26T09:37:50;21.23;;;9.30;;
54705;SDS011;40603;48.774;8.916;2023-01-26T09:40:21;21.88;;;8.68;;
54705;SDS011;40603;48.774;8.916;2023-01-26T09:45:54;16.48;;;7.78;;
54705;SDS011;40603;48.774;8.916;2023-01-26T09:48:41;12.20;;;6.60;;
54705;SDS011;40603;48.774;8.916;2023-01-26T09:51:10;15.25;;;6.95;;
54705;SDS011;40603;48.774;8.916;2023-01-26T09:53:40;18.00;;;7.97;;
54705;SDS011;40603;48.774;8.916;2023-01-26T09:56:27;18.63;;;7.85;;
54705;SDS011;40603;48.774;8.916;2023-01-26T09:58:55;14.88;;;7.97;;
54705;SDS011;40603;48.774;8.916;2023-01-26T10:01:44;17.98;;;8.48;;
54705;SDS011;40603;48.774;8.916;2023-01-26T10:04:25;17.65;;;7.72;;
54705;SDS011;40603;48.774;8.916;2023-01-26T10:06:56;15.95;;;7.90;;
54705;SDS011;40603;48.774;8.916;2023-01-26T10:09:23;19.88;;;7.63;;
54705;SDS011;40603;48.774;8.916;2023-01-26T10:11:52;17.70;;;7.70;;
54705;SDS011;40603;48.774;8.916;2023-01-26T10:14:20;17.20;;;7.40;;
54705;SDS011;40603;48.774;8.916;2023-01-26T10:16:51;16.85;;;8.15;;
54705;SDS011;40603;48.774;8.916;2023-01-26T10:21:59;19.42;;;8.68;;
54705;SDS011;40603;48.774;8.916;2023-01-26T10:24:30;21.63;;;8.02;;
54705;SDS011;40603;48.774;8.916;2023-01-26T10:26:57;25.10;;;10.02;;
54705;SDS011;40603;48.774;8.916;2023-01-26T10:29:23;19.20;;;8.68;;
54705;SDS011;40603;48.774;8.916;2023-01-26T10:31:49;21.85;;;10.18;;
54705;SDS011;40603;48.774;8.916;2023-01-26T10:34:15;21.40;;;8.82;;
54705;SDS011;40603;48.774;8.916;2023-01-26T10:36:45;19.08;;;8.55;;
54705;SDS011;40603;48.774;8.916;2023-01-26T10:39:12;20.13;;;9.45;;
54705;SDS011;40603;48.774;8.916;2023-01-26T10:41:38;22.77;;;8.85;;
54705;SDS011;40603;48.774;8.916;2023-01-26T10:46:39;20.10;;;9.23;;
54705;SDS011;40603;48.774;8.916;2023-01-26T10:51:34;20.73;;;9.13;;
54705;SDS011;40603;48.774;8.916;2023-01-26T10:56:45;19.92;;;8.65;;
54705;SDS011;40603;48.774;8.916;2023-01-26T10:59:48;23.77;;;9.18;;
54705;SDS011;40603;48.774;8.916;2023-01-26T11:05:00;21.40;;;10.15;;
54705;SDS011;40603;48.774;8.916;2023-01-26T11:07:32;26.23;;;10.13;;
54705;SDS011;40603;48.774;8.916;2023-01-26T11:12:49;26.55;;;10.35;;
54705;SDS011;40603;48.774;8.916;2023-01-26T11:15:16;25.20;;;10.23;;
54705;SDS011;40603;48.774;8.916;2023-01-26T11:17:44;27.42;;;10.63;;
54705;SDS011;40603;48.774;8.916;2023-01-26T11:23:17;22.40;;;9.00;;
54705;SDS011;40603;48.774;8.916;2023-01-26T11:36:51;20.80;;;9.52;;
54705;SDS011;40603;48.774;8.916;2023-01-26T11:39:42;19.92;;;8.82;;
54705;SDS011;40603;48.774;8.916;2023-01-26T11:42:31;22.70;;;9.57;;
54705;SDS011;40603;48.774;8.916;2023-01-26T11:50:43;21.92;;;8.45;;
54705;SDS011;40603;48.774;8.916;2023-01-26T11:53:20;21.27;;;8.63;;
54705;SDS011;40603;48.774;8.916;2023-01-26T12:01:30;19.70;;;8.45;;
54705;SDS011;40603;48.774;8.916;2023-01-26T12:04:18;29.88;;;10.43;;
54705;SDS011;40603;48.774;8.916;2023-01-26T12:06:46;22.35;;;8.55;;
54705;SDS011;40603;48.774;8.916;2023-01-26T12:09:29;25.55;;;9.77;;
54705;SDS011;40603;48.774;8.916;2023-01-26T12:12:02;20.25;;;8.88;;
54705;SDS011;40603;48.774;8.916;2023-01-26T12:17:25;24.35;;;10.05;;
54705;SDS011;40603;48.774;8.916;2023-01-26T12:25:46;21.10;;;8.23;;
54705;SDS011;40603;48.774;8.916;2023-01-26T12:28:17;25.38;;;9.55;;
54705;SDS011;40603;48.774;8.916;2023-01-26T12:30:50;21.27;;;9.48;;
54705;SDS011;40603;48.774;8.916;2023-01-26T12:33:17;22.35;;;9.82;;
54705;SDS011;40603;48.774;8.916;2023-01-26T12:42:02;24.88;;;8.93;;
54705;SDS011;40603;48.774;8.916;2023-01-26T12:44:32;22.70;;;9.43;;
54705;SDS011;40603;48.774;8.916;2023-01-26T12:47:12;20.48;;;9.25;;
54705;SDS011;40603;48.774;8.916;2023-01-26T12:49:45;19.33;;;8.32;;
54705;SDS011;40603;48.774;8.916;2023-01-26T12:52:37;19.67;;;8.82;;
54705;SDS011;40603;48.774;8.916;2023-01-26T12:55:15;22.48;;;10.23;;
54705;SDS011;40603;48.774;8.916;2023-01-26T12:57:48;20.98;;;9.40;;
54705;SDS011;40603;48.774;8.916;2023-01-26T13:00:37;23.27;;;10.25;;
54705;SDS011;40603;48.774;8.916;2023-01-26T13:03:16;19.50;;;9.07;;
54705;SDS011;40603;48.774;8.916;2023-01-26T13:05:54;24.25;;;10.20;;
54705;SDS011;40603;48.774;8.916;2023-01-26T13:10:56;25.70;;;9.85;;
54705;SDS011;40603;48.774;8.916;2023-01-26T13:13:32;24.25;;;10.48;;
54705;SDS011;40603;48.774;8.916;2023-01-26T13:18:58;20.70;;;9.80;;
54705;SDS011;40603;48.774;8.916;2023-01-26T13:21:29;25.80;;;10.52;;
54705;SDS011;40603;48.774;8.916;2023-01-26T13:24:48;25.48;;;10.23;;
54705;SDS011;40603;48.774;8.916;2023-01-26T13:26:55;27.45;;;11.45;;
54705;SDS011;40603;48.774;8.916;2023-01-26T13:34:36;23.05;;;10.50;;
54705;SDS011;40603;48.774;8.916;2023-01-26T13:39:43;25.17;;;10.20;;
54705;SDS011;40603;48.774;8.916;2023-01-26T13:42:15;25.70;;;9.77;;
54705;SDS011;40603;48.774;8.916;2023-01-26T13:45:03;24.58;;;10.38;;
54705;SDS011;40603;48.774;8.916;2023-01-26T13:47:33;29.08;;;10.65;;
54705;SDS011;40603;48.774;8.916;2023-01-26T13:50:00;31.52;;;11.98;;
54705;SDS011;40603;48.774;8.916;2023-01-26T13:52:26;28.95;;;12.18;;
54705;SDS011;40603;48.774;8.916;2023-01-26T13:54:52;29.95;;;12.10;;
54705;SDS011;40603;48.774;8.916;2023-01-26T13:57:22;24.45;;;10.63;;
54705;SDS011;40603;48.774;8.916;2023-01-26T13:59:59;26.08;;;11.15;;
54705;SDS011;40603;48.774;8.916;2023-01-26T14:02:25;28.88;;;11.50;;
54705;SDS011;40603;48.774;8.916;2023-01-26T14:04:56;28.13;;;11.63;;
54705;SDS011;40603;48.774;8.916;2023-01-26T14:09:56;24.02;;;10.63;;
54705;SDS011;40603;48.774;8.916;2023-01-26T14:12:24;28.85;;;11.52;;
54705;SDS011;40603;48.774;8.916;2023-01-26T14:14:53;27.92;;;10.82;;
54705;SDS011;40603;48.774;8.916;2023-01-26T14:17:22;30.83;;;11.63;;
54705;SDS011;40603;48.774;8.916;2023-01-26T14:19:49;30.13;;;11.80;;
54705;SDS011;40603;48.774;8.916;2023-01-26T14:22:15;31.75;;;11.90;;
54705;SDS011;40603;48.774;8.916;2023-01-26T14:24:41;33.28;;;13.52;;
54705;SDS011;40603;48.774;8.916;2023-01-26T14:27:25;31.55;;;12.88;;
54705;SDS011;40603;48.774;8.916;2023-01-26T14:33:01;30.00;;;12.20;;
54705;SDS011;40603;48.774;8.916;2023-01-26T14:35:29;31.75;;;12.48;;
54705;SDS011;40603;48.774;8.916;2023-01-26T14:40:52;24.98;;;11.20;;
54705;SDS011;40603;48.774;8.916;2023-01-26T14:43:19;31.05;;;13.00;;
54705;SDS011;40603;48.774;8.916;2023-01-26T14:45:48;28.63;;;12.50;;
54705;SDS011;40603;48.774;8.916;2023-01-26T14:48:26;23.50;;;8.75;;
54705;SDS011;40603;48.774;8.916;2023-01-26T14:50:57;32.20;;;12.05;;
54705;SDS011;40603;48.774;8.916;2023-01-26T14:53:23;28.10;;;11.65;;
54705;SDS011;40603;48.774;8.916;2023-01-26T14:55:49;26.77;;;11.95;;
54705;SDS011;40603;48.774;8.916;2023-01-26T14:58:20;30.25;;;12.60;;
54705;SDS011;40603;48.774;8.916;2023-01-26T15:00:49;26.17;;;12.25;;
54705;SDS011;40603;48.774;8.916;2023-01-26T15:05:43;32.50;;;14.10;;
54705;SDS011;40603;48.774;8.916;2023-01-26T15:08:19;30.92;;;11.63;;
54705;SDS011;40603;48.774;8.916;2023-01-26T15:10:56;28.33;;;12.43;;
54705;SDS011;40603;48.774;8.916;2023-01-26T15:13:47;32.53;;;12.90;;
54705;SDS011;40603;48.774;8.916;2023-01-26T15:16:17;29.98;;;12.80;;
54705;SDS011;40603;48.774;8.916;2023-01-26T15:18:44;27.35;;;12.23;;
54705;SDS011;40603;48.774;8.916;2023-01-26T15:21:17;26.77;;;12.40;;
54705;SDS011;40603;48.774;8.916;2023-01-26T15:23:44;24.88;;;10.93;;
54705;SDS011;40603;48.774;8.916;2023-01-26T15:26:20;24.60;;;12.40;;
54705;SDS011;40603;48.774;8.916;2023-01-26T15:28:56;21.88;;;10.05;;
54705;SDS011;40603;48.774;8.916;2023-01-26T15:31:32;22.40;;;10.30;;
54705;SDS011;40603;48.774;8.916;2023-01-26T15:33:59;20.67;;;10.20;;
54705;SDS011;40603;48.774;8.916;2023-01-26T15:36:38;29.17;;;12.35;;
54705;SDS011;40603;48.774;8.916;2023-01-26T15:39:15;20.80;;;10.75;;
54705;SDS011;40603;48.774;8.916;2023-01-26T15:41:42;20.80;;;9.57;;
54705;SDS011;40603;48.774;8.916;2023-01-26T15:44:11;20.60;;;9.90;;
54705;SDS011;40603;48.774;8.916;2023-01-26T15:46:41;20.00;;;9.48;;
54705;SDS011;40603;48.774;8.916;2023-01-26T15:49:07;22.80;;;9.63;;
54705;SDS011;40603;48.774;8.916;2023-01-26T15:51:32;17.33;;;9.32;;
54705;SDS011;40603;48.774;8.916;2023-01-26T15:53:58;21.92;;;10.02;;
54705;SDS011;40603;48.774;8.916;2023-01-26T15:56:23;18.90;;;8.82;;
54705;SDS011;40603;48.774;8.916;2023-01-26T15:58:48;21.70;;;10.40;;
54705;SDS011;40603;48.774;8.916;2023-01-26T16:01:15;18.85;;;9.55;;
54705;SDS011;40603;48.774;8.916;2023-01-26T16:03:43;20.50;;;10.05;;
54705;SDS011;40603;48.774;8.916;2023-01-26T16:06:18;19.15;;;10.15;;
54705;SDS011;40603;48.774;8.916;2023-01-26T16:08:48;19.77;;;10.07;;
54705;SDS011;40603;48.774;8.916;2023-01-26T16:11:13;23.17;;;10.90;;